createdAt,value
2018-03-08T00:00:05.352Z,3.80
2018-03-08T00:01:05.278Z,3.80
2018-03-08T00:02:05.433Z,3.90
2018-03-08T00:03:04.717Z,3.90
2018-03-08T00:04:05.134Z,3.90
2018-03-08T00:05:05.370Z,3.90
2018-03-08T00:06:05.329Z,3.90
2018-03-08T00:07:05.060Z,3.90
2018-03-08T00:08:04.609Z,3.90
2018-03-08T00:09:04.656Z,3.80
2018-03-08T00:10:10.779Z,3.80
2018-03-08T00:11:05.037Z,3.80
2018-03-08T00:12:05.083Z,3.80
2018-03-08T00:13:05.254Z,3.80
2018-03-08T00:14:05.107Z,3.80
2018-03-08T00:15:04.650Z,3.80
2018-03-08T00:16:05.503Z,3.80
2018-03-08T00:17:04.646Z,3.80
2018-03-08T00:18:05.331Z,3.80
2018-03-08T00:19:05.151Z,3.80
2018-03-08T00:20:05.138Z,3.80
2018-03-08T00:21:05.247Z,3.80
2018-03-08T00:22:04.648Z,3.80
2018-03-08T00:23:04.738Z,3.80
2018-03-08T00:24:04.559Z,3.80
2018-03-08T00:25:04.627Z,3.80
2018-03-08T00:26:04.625Z,3.80
2018-03-08T00:27:05.254Z,3.80
2018-03-08T00:28:04.824Z,3.80
2018-03-08T00:29:04.889Z,3.80
2018-03-08T00:30:04.703Z,3.80
2018-03-08T00:31:05.345Z,3.80
2018-03-08T00:32:05.169Z,3.80
2018-03-08T00:33:05.335Z,3.90
2018-03-08T00:34:05.243Z,3.90
2018-03-08T00:35:05.470Z,3.90
2018-03-08T00:36:05.125Z,3.90
2018-03-08T00:37:05.013Z,3.90
2018-03-08T00:38:05.404Z,3.90
2018-03-08T00:39:04.986Z,3.90
2018-03-08T00:40:04.738Z,3.90
2018-03-08T00:41:05.559Z,3.90
2018-03-08T00:42:04.967Z,3.90
2018-03-08T00:43:04.744Z,3.90
2018-03-08T00:44:05.310Z,3.90
2018-03-08T00:45:05.179Z,3.90
2018-03-08T00:46:05.083Z,3.90
2018-03-08T00:47:04.689Z,3.90
2018-03-08T00:48:05.438Z,3.90
2018-03-08T00:49:05.438Z,3.90
2018-03-08T00:50:05.162Z,3.90
2018-03-08T00:51:04.638Z,3.90
2018-03-08T00:52:04.711Z,3.90
2018-03-08T00:53:04.616Z,3.90
2018-03-08T00:54:05.249Z,3.90
2018-03-08T00:55:04.830Z,3.90
2018-03-08T00:56:04.670Z,3.90
2018-03-08T00:57:05.375Z,3.90
2018-03-08T00:58:05.004Z,3.90
2018-03-08T00:59:04.995Z,3.90
2018-03-08T01:00:04.646Z,4.00
2018-03-08T01:01:04.573Z,4.00
2018-03-08T01:02:05.384Z,4.00
2018-03-08T01:03:05.190Z,4.00
2018-03-08T01:04:05.024Z,4.00
2018-03-08T01:05:04.892Z,4.00
2018-03-08T01:06:04.815Z,4.00
2018-03-08T01:07:05.179Z,4.00
2018-03-08T01:08:04.713Z,4.00
2018-03-08T01:09:04.786Z,4.00
2018-03-08T01:10:05.874Z,3.90
2018-03-08T01:11:05.202Z,4.00
2018-03-08T01:12:05.062Z,4.00
2018-03-08T01:13:04.555Z,4.00
2018-03-08T01:14:04.646Z,4.00
2018-03-08T01:15:04.501Z,3.90
2018-03-08T01:16:04.622Z,3.90
2018-03-08T01:17:04.649Z,3.90
2018-03-08T01:18:04.924Z,3.90
2018-03-08T01:19:04.795Z,3.90
2018-03-08T01:20:04.614Z,3.90
2018-03-08T01:21:04.650Z,3.90
2018-03-08T01:22:04.756Z,3.90
2018-03-08T01:23:04.655Z,3.90
2018-03-08T01:24:05.202Z,3.90
2018-03-08T01:25:04.921Z,3.90
2018-03-08T01:26:04.864Z,3.90
2018-03-08T01:27:04.713Z,3.90
2018-03-08T01:28:05.299Z,3.90
2018-03-08T01:29:05.448Z,3.90
2018-03-08T01:30:05.219Z,3.90
2018-03-08T01:31:04.812Z,3.90
2018-03-08T01:32:05.232Z,3.90
2018-03-08T01:33:05.101Z,3.90
2018-03-08T01:34:04.587Z,3.90
2018-03-08T01:35:04.452Z,3.90
2018-03-08T01:36:04.611Z,3.90
2018-03-08T01:37:04.856Z,3.90
2018-03-08T01:38:04.889Z,3.90
2018-03-08T01:39:05.253Z,3.90
2018-03-08T01:40:05.354Z,3.90
2018-03-08T01:41:04.662Z,3.90
2018-03-08T01:42:09.573Z,3.90
2018-03-08T01:43:04.631Z,3.90
2018-03-08T01:44:05.262Z,3.90
2018-03-08T01:45:10.144Z,3.90
2018-03-08T01:46:04.549Z,3.90
2018-03-08T01:47:04.701Z,3.90
2018-03-08T01:48:05.012Z,3.90
2018-03-08T01:49:05.270Z,4.00
2018-03-08T01:50:05.158Z,3.90
2018-03-08T01:51:05.095Z,4.00
2018-03-08T01:52:04.794Z,3.90
2018-03-08T01:53:04.781Z,4.00
2018-03-08T01:54:04.557Z,4.00
2018-03-08T01:55:05.056Z,4.00
2018-03-08T01:56:05.034Z,4.00
2018-03-08T01:57:04.749Z,4.00
2018-03-08T01:58:05.150Z,4.00
2018-03-08T01:59:04.753Z,4.00
2018-03-08T02:00:04.549Z,4.00
2018-03-08T02:01:05.247Z,4.00
2018-03-08T02:02:05.313Z,4.00
2018-03-08T02:03:05.216Z,4.00
2018-03-08T02:04:04.958Z,4.00
2018-03-08T02:05:04.781Z,4.00
2018-03-08T02:06:04.677Z,3.90
2018-03-08T02:07:05.405Z,4.00
2018-03-08T02:08:04.859Z,4.00
2018-03-08T02:09:04.749Z,4.00
2018-03-08T02:10:05.101Z,3.90
2018-03-08T02:11:04.811Z,4.00
2018-03-08T02:12:04.636Z,4.00
2018-03-08T02:13:05.578Z,4.00
2018-03-08T02:14:05.453Z,4.00
2018-03-08T02:15:05.298Z,4.00
2018-03-08T02:16:05.259Z,4.00
2018-03-08T02:17:04.921Z,4.00
2018-03-08T02:18:04.801Z,4.00
2018-03-08T02:19:04.708Z,4.00
2018-03-08T02:20:05.358Z,4.00
2018-03-08T02:21:05.247Z,4.00
2018-03-08T02:22:05.095Z,4.00
2018-03-08T02:23:05.041Z,4.00
2018-03-08T02:24:04.779Z,4.00
2018-03-08T02:25:04.474Z,4.00
2018-03-08T02:26:05.296Z,4.00
2018-03-08T02:27:05.317Z,4.00
2018-03-08T02:28:04.992Z,4.00
2018-03-08T02:29:04.992Z,4.00
2018-03-08T02:30:05.031Z,4.00
2018-03-08T02:31:05.110Z,4.00
2018-03-08T02:32:05.242Z,3.90
2018-03-08T02:33:05.195Z,4.00
2018-03-08T02:34:04.703Z,4.00
2018-03-08T02:35:05.285Z,4.00
2018-03-08T02:36:04.625Z,3.90
2018-03-08T02:37:04.667Z,4.00
2018-03-08T02:38:05.318Z,3.90
2018-03-08T02:39:04.817Z,3.90
2018-03-08T02:40:04.919Z,3.90
2018-03-08T02:41:04.586Z,3.90
2018-03-08T02:42:04.843Z,3.90
2018-03-08T02:43:05.035Z,3.90
2018-03-08T02:44:05.319Z,3.90
2018-03-08T02:45:04.637Z,3.90
2018-03-08T02:46:05.490Z,3.90
2018-03-08T02:47:04.702Z,3.90
2018-03-08T02:48:04.474Z,3.90
2018-03-08T02:49:04.925Z,3.90
2018-03-08T02:50:05.058Z,3.90
2018-03-08T02:51:05.167Z,3.90
2018-03-08T02:52:05.187Z,3.90
2018-03-08T02:53:05.362Z,3.90
2018-03-08T02:54:05.180Z,3.90
2018-03-08T02:55:04.475Z,3.90
2018-03-08T02:56:04.687Z,3.90
2018-03-08T02:57:04.869Z,3.90
2018-03-08T02:58:04.976Z,3.90
2018-03-08T02:59:04.977Z,3.90
2018-03-08T03:00:04.486Z,3.90
2018-03-08T03:01:04.561Z,3.90
2018-03-08T03:02:04.682Z,3.90
2018-03-08T03:03:04.573Z,3.90
2018-03-08T03:04:04.787Z,3.90
2018-03-08T03:05:05.446Z,3.90
2018-03-08T03:06:05.473Z,3.90
2018-03-08T03:07:05.322Z,4.00
2018-03-08T03:08:04.605Z,3.90
2018-03-08T03:09:05.456Z,4.00
2018-03-08T03:10:05.200Z,4.00
2018-03-08T03:11:04.857Z,4.00
2018-03-08T03:12:05.475Z,4.00
2018-03-08T03:13:04.617Z,4.00
2018-03-08T03:14:05.484Z,3.90
2018-03-08T03:15:05.340Z,4.00
2018-03-08T03:16:05.272Z,4.00
2018-03-08T03:17:05.398Z,3.90
2018-03-08T03:18:04.661Z,4.00
2018-03-08T03:19:04.579Z,4.00
2018-03-08T03:20:05.350Z,4.00
2018-03-08T03:21:04.766Z,4.00
2018-03-08T03:22:04.681Z,4.00
2018-03-08T03:23:04.605Z,4.00
2018-03-08T03:24:04.670Z,4.00
2018-03-08T03:25:04.655Z,4.00
2018-03-08T03:26:05.338Z,4.00
2018-03-08T03:27:05.403Z,4.00
2018-03-08T03:28:04.664Z,4.00
2018-03-08T03:29:04.559Z,4.00
2018-03-08T03:30:05.302Z,4.00
2018-03-08T03:31:05.275Z,4.00
2018-03-08T03:32:04.838Z,4.00
2018-03-08T03:33:04.794Z,4.00
2018-03-08T03:34:04.664Z,4.00
2018-03-08T03:35:04.751Z,4.00
2018-03-08T03:36:04.684Z,4.00
2018-03-08T03:37:05.346Z,4.00
2018-03-08T03:38:05.534Z,4.00
2018-03-08T03:39:05.330Z,3.90
2018-03-08T03:40:05.136Z,3.90
2018-03-08T03:41:05.016Z,4.00
2018-03-08T03:42:04.749Z,3.90
2018-03-08T03:43:04.683Z,3.90
2018-03-08T03:44:05.042Z,3.90
2018-03-08T03:45:04.789Z,3.90
2018-03-08T03:46:06.092Z,3.90
2018-03-08T03:47:05.133Z,3.90
2018-03-08T03:48:05.279Z,3.90
2018-03-08T03:49:04.706Z,3.90
2018-03-08T03:50:04.763Z,3.90
2018-03-08T03:51:05.338Z,3.90
2018-03-08T03:52:04.677Z,3.90
2018-03-08T03:53:04.651Z,3.90
2018-03-08T03:54:04.486Z,3.90
2018-03-08T03:55:04.482Z,3.90
2018-03-08T03:56:04.818Z,3.90
2018-03-08T03:57:04.510Z,3.90
2018-03-08T03:58:04.490Z,3.90
2018-03-08T03:59:04.526Z,3.90
2018-03-08T04:00:05.407Z,3.80
2018-03-08T04:01:04.703Z,3.80
2018-03-08T04:02:04.516Z,3.80
2018-03-08T04:03:05.098Z,3.80
2018-03-08T04:04:04.963Z,3.90
2018-03-08T04:05:05.127Z,3.90
2018-03-08T04:06:04.947Z,3.90
2018-03-08T04:07:04.512Z,3.90
2018-03-08T04:08:05.031Z,3.90
2018-03-08T04:09:05.030Z,3.90
2018-03-08T04:10:05.003Z,3.90
2018-03-08T04:11:04.873Z,3.90
2018-03-08T04:12:04.719Z,3.90
2018-03-08T04:13:04.799Z,3.90
2018-03-08T04:14:05.023Z,3.90
2018-03-08T04:15:04.661Z,3.90
2018-03-08T04:16:05.012Z,3.90
2018-03-08T04:17:05.105Z,3.90
2018-03-08T04:18:05.207Z,3.90
2018-03-08T04:19:04.838Z,3.90
2018-03-08T04:20:04.500Z,3.90
2018-03-08T04:21:05.350Z,3.90
2018-03-08T04:22:04.622Z,3.90
2018-03-08T04:23:04.969Z,3.90
2018-03-08T04:24:05.133Z,3.90
2018-03-08T04:25:05.065Z,3.90
2018-03-08T04:26:05.162Z,3.90
2018-03-08T04:27:05.192Z,3.90
2018-03-08T04:28:05.110Z,3.90
2018-03-08T04:29:04.853Z,3.80
2018-03-08T04:30:04.533Z,3.90
2018-03-08T04:31:05.383Z,3.90
2018-03-08T04:32:05.002Z,3.80
2018-03-08T04:33:04.803Z,3.80
2018-03-08T04:34:04.567Z,3.80
2018-03-08T04:35:05.642Z,3.80
2018-03-08T04:36:05.090Z,3.80
2018-03-08T04:37:04.937Z,3.80
2018-03-08T04:38:05.282Z,3.80
2018-03-08T04:39:05.348Z,3.80
2018-03-08T04:40:04.722Z,3.80
2018-03-08T04:41:04.571Z,3.80
2018-03-08T04:42:05.253Z,3.80
2018-03-08T04:43:04.974Z,3.80
2018-03-08T04:44:04.806Z,3.80
2018-03-08T04:45:05.410Z,3.80
2018-03-08T04:46:05.482Z,3.80
2018-03-08T04:47:05.234Z,3.80
2018-03-08T04:48:04.857Z,3.80
2018-03-08T04:49:04.647Z,3.80
2018-03-08T04:50:04.542Z,3.80
2018-03-08T04:51:04.752Z,3.80
2018-03-08T04:52:04.886Z,3.80
2018-03-08T04:53:04.841Z,3.80
2018-03-08T04:54:04.918Z,3.80
2018-03-08T04:55:04.744Z,3.80
2018-03-08T04:56:04.640Z,3.80
2018-03-08T04:57:05.255Z,3.80
2018-03-08T04:58:04.681Z,3.80
2018-03-08T04:59:04.686Z,3.80
2018-03-08T05:00:04.849Z,3.80
2018-03-08T05:01:04.466Z,3.80
2018-03-08T05:02:05.327Z,3.80
2018-03-08T05:03:04.957Z,3.80
2018-03-08T05:04:04.632Z,3.80
2018-03-08T05:05:05.257Z,3.80
2018-03-08T05:06:05.033Z,3.80
2018-03-08T05:07:05.252Z,3.80
2018-03-08T05:08:05.017Z,3.80
2018-03-08T05:09:06.219Z,3.80
2018-03-08T05:10:06.129Z,3.80
2018-03-08T05:11:04.561Z,3.80
2018-03-08T05:12:04.566Z,3.80
2018-03-08T05:13:05.413Z,3.80
2018-03-08T05:14:05.050Z,3.80
2018-03-08T05:15:04.927Z,3.80
2018-03-08T05:16:04.574Z,3.80
2018-03-08T05:17:04.691Z,3.80
2018-03-08T05:18:05.373Z,3.80
2018-03-08T05:19:05.110Z,3.80
2018-03-08T05:20:05.001Z,3.80
2018-03-08T05:21:04.572Z,3.80
2018-03-08T05:22:05.219Z,3.80
2018-03-08T05:23:05.122Z,3.80
2018-03-08T05:24:05.003Z,3.80
2018-03-08T05:25:05.573Z,3.80
2018-03-08T05:26:04.896Z,3.80
2018-03-08T05:27:04.667Z,3.80
2018-03-08T05:28:04.856Z,3.80
2018-03-08T05:29:04.853Z,3.80
2018-03-08T05:30:05.432Z,3.80
2018-03-08T05:31:05.250Z,3.80
2018-03-08T05:32:04.951Z,3.80
2018-03-08T05:33:05.084Z,3.80
2018-03-08T05:34:05.107Z,3.80
2018-03-08T05:35:05.280Z,3.80
2018-03-08T05:36:05.084Z,3.80
2018-03-08T05:37:05.242Z,3.80
2018-03-08T05:38:05.022Z,3.80
2018-03-08T05:39:04.790Z,3.80
2018-03-08T05:40:04.722Z,3.70
2018-03-08T05:41:04.552Z,3.70
2018-03-08T05:42:04.510Z,3.70
2018-03-08T05:43:05.400Z,3.70
2018-03-08T05:44:05.115Z,3.70
2018-03-08T05:45:05.386Z,3.70
2018-03-08T05:46:04.537Z,3.70
2018-03-08T05:47:04.734Z,3.70
2018-03-08T05:48:05.376Z,3.70
2018-03-08T05:49:05.307Z,3.70
2018-03-08T05:50:04.652Z,3.70
2018-03-08T05:51:05.439Z,3.70
2018-03-08T05:52:05.388Z,3.70
2018-03-08T05:53:05.129Z,3.70
2018-03-08T05:54:05.057Z,3.70
2018-03-08T05:55:04.726Z,3.70
2018-03-08T05:56:04.725Z,3.70
2018-03-08T05:57:04.496Z,3.70
2018-03-08T05:58:05.231Z,3.70
2018-03-08T05:59:04.923Z,3.70
2018-03-08T06:00:06.350Z,3.70
2018-03-08T06:01:05.349Z,3.70
2018-03-08T06:02:05.171Z,3.70
2018-03-08T06:03:04.800Z,3.70
2018-03-08T06:04:05.203Z,3.70
2018-03-08T06:05:05.264Z,3.70
2018-03-08T06:06:05.287Z,3.70
2018-03-08T06:07:05.410Z,3.70
2018-03-08T06:08:04.843Z,3.70
2018-03-08T06:09:04.813Z,3.70
2018-03-08T06:10:04.861Z,3.70
2018-03-08T06:11:04.533Z,3.70
2018-03-08T06:12:04.614Z,3.70
2018-03-08T06:13:05.241Z,3.70
2018-03-08T06:14:05.225Z,3.70
2018-03-08T06:15:05.110Z,3.70
2018-03-08T06:16:05.267Z,3.70
2018-03-08T06:17:05.106Z,3.70
2018-03-08T06:18:04.990Z,3.70
2018-03-08T06:19:05.250Z,3.70
2018-03-08T06:20:05.128Z,3.70
2018-03-08T06:21:04.629Z,3.70
2018-03-08T06:22:04.946Z,3.70
2018-03-08T06:23:05.071Z,3.70
2018-03-08T06:24:05.067Z,3.70
2018-03-08T06:25:05.415Z,3.70
2018-03-08T06:26:05.325Z,3.70
2018-03-08T06:27:05.421Z,3.70
2018-03-08T06:28:05.329Z,3.70
2018-03-08T06:29:04.962Z,3.70
2018-03-08T06:30:04.922Z,3.70
2018-03-08T06:31:04.558Z,3.70
2018-03-08T06:32:05.309Z,3.70
2018-03-08T06:33:04.514Z,3.70
2018-03-08T06:34:04.781Z,3.70
2018-03-08T06:35:04.667Z,3.70
2018-03-08T06:36:05.442Z,3.70
2018-03-08T06:37:04.978Z,3.80
2018-03-08T06:38:04.553Z,3.80
2018-03-08T06:39:05.409Z,3.80
2018-03-08T06:40:05.475Z,3.80
2018-03-08T06:41:05.367Z,3.80
2018-03-08T06:42:05.450Z,3.80
2018-03-08T06:43:04.507Z,3.80
2018-03-08T06:44:05.185Z,3.80
2018-03-08T06:45:04.879Z,3.80
2018-03-08T06:46:04.825Z,3.80
2018-03-08T06:47:04.801Z,3.80
2018-03-08T06:48:04.721Z,3.80
2018-03-08T06:49:04.843Z,3.80
2018-03-08T06:50:04.551Z,3.80
2018-03-08T06:51:05.388Z,3.90
2018-03-08T06:52:05.069Z,3.90
2018-03-08T06:53:04.973Z,4.00
2018-03-08T06:54:05.196Z,4.00
2018-03-08T06:55:05.299Z,4.10
2018-03-08T06:56:04.943Z,4.20
2018-03-08T06:57:04.978Z,4.30
2018-03-08T06:58:04.791Z,4.40
2018-03-08T06:59:05.230Z,4.60
2018-03-08T07:00:04.724Z,4.70
2018-03-08T07:01:05.445Z,4.80
2018-03-08T07:02:04.777Z,4.90
2018-03-08T07:03:04.762Z,5.00
2018-03-08T07:04:04.838Z,5.10
2018-03-08T07:05:04.566Z,5.30
2018-03-08T07:06:04.546Z,5.40
2018-03-08T07:07:05.429Z,5.50
2018-03-08T07:08:05.254Z,5.50
2018-03-08T07:09:04.538Z,5.60
2018-03-08T07:10:04.873Z,5.70
2018-03-08T07:11:04.679Z,5.80
2018-03-08T07:12:04.978Z,5.80
2018-03-08T07:13:05.255Z,5.90
2018-03-08T07:14:05.316Z,6.00
2018-03-08T07:15:04.691Z,6.00
2018-03-08T07:16:04.946Z,6.10
2018-03-08T07:17:05.107Z,6.20
2018-03-08T07:18:04.760Z,6.20
2018-03-08T07:19:04.590Z,6.30
2018-03-08T07:20:04.782Z,6.40
2018-03-08T07:21:04.556Z,6.40
2018-03-08T07:22:05.437Z,6.40
2018-03-08T07:23:05.536Z,6.50
2018-03-08T07:24:05.205Z,6.50
2018-03-08T07:25:04.473Z,6.60
2018-03-08T07:26:04.931Z,6.60
2018-03-08T07:27:04.988Z,6.60
2018-03-08T07:28:04.850Z,6.70
2018-03-08T07:29:04.581Z,6.70
2018-03-08T07:30:05.003Z,6.70
2018-03-08T07:31:05.014Z,6.70
2018-03-08T07:32:05.307Z,6.80
2018-03-08T07:33:04.503Z,6.70
2018-03-08T07:34:04.555Z,6.80
2018-03-08T07:35:05.069Z,6.80
2018-03-08T07:36:04.895Z,6.80
2018-03-08T07:37:04.686Z,6.80
2018-03-08T07:38:05.499Z,6.80
2018-03-08T07:39:05.058Z,6.80
2018-03-08T07:40:04.820Z,6.80
2018-03-08T07:41:04.994Z,6.90
2018-03-08T07:42:04.779Z,6.90
2018-03-08T07:43:04.851Z,6.90
2018-03-08T07:44:05.286Z,6.80
2018-03-08T07:45:05.175Z,6.80
2018-03-08T07:46:05.428Z,6.80
2018-03-08T07:47:05.019Z,6.80
2018-03-08T07:48:05.054Z,6.80
2018-03-08T07:49:04.697Z,6.80
2018-03-08T07:50:05.382Z,6.80
2018-03-08T07:51:05.325Z,6.80
2018-03-08T07:52:05.130Z,6.80
2018-03-08T07:53:04.712Z,6.80
2018-03-08T07:54:04.775Z,6.70
2018-03-08T07:55:05.512Z,6.80
2018-03-08T07:56:05.297Z,6.70
2018-03-08T07:57:05.217Z,6.80
2018-03-08T07:58:04.882Z,6.80
2018-03-08T07:59:04.696Z,6.80
2018-03-08T08:00:05.405Z,6.80
2018-03-08T08:01:04.520Z,6.80
2018-03-08T08:02:05.258Z,6.80
2018-03-08T08:03:05.444Z,6.80
2018-03-08T08:04:05.116Z,6.80
2018-03-08T08:05:04.880Z,6.90
2018-03-08T08:06:04.622Z,6.90
2018-03-08T08:07:05.360Z,6.90
2018-03-08T08:08:05.000Z,6.90
2018-03-08T08:09:04.924Z,6.90
2018-03-08T08:10:04.580Z,6.90
2018-03-08T08:11:04.960Z,6.90
2018-03-08T08:12:04.773Z,6.90
2018-03-08T08:13:04.474Z,6.90
2018-03-08T08:14:04.514Z,6.90
2018-03-08T08:15:04.480Z,7.00
2018-03-08T08:16:05.061Z,7.00
2018-03-08T08:17:04.773Z,7.00
2018-03-08T08:18:04.661Z,7.10
2018-03-08T08:19:04.487Z,7.10
2018-03-08T08:20:04.673Z,7.10
2018-03-08T08:21:05.492Z,7.20
2018-03-08T08:22:05.112Z,7.20
2018-03-08T08:23:05.204Z,7.30
2018-03-08T08:24:05.140Z,7.30
2018-03-08T08:25:04.633Z,7.30
2018-03-08T08:26:05.505Z,7.30
2018-03-08T08:27:05.214Z,7.30
2018-03-08T08:28:06.436Z,7.30
2018-03-08T08:29:04.471Z,7.20
2018-03-08T08:30:04.747Z,7.20
2018-03-08T08:31:05.144Z,7.10
2018-03-08T08:32:05.424Z,7.00
2018-03-08T08:33:04.508Z,7.00
2018-03-08T08:34:04.841Z,6.90
2018-03-08T08:35:05.317Z,6.80
2018-03-08T08:36:05.163Z,6.80
2018-03-08T08:37:05.277Z,6.70
2018-03-08T08:38:04.717Z,6.60
2018-03-08T08:39:04.645Z,6.60
2018-03-08T08:40:05.420Z,6.50
2018-03-08T08:41:05.533Z,6.40
2018-03-08T08:42:04.917Z,6.40
2018-03-08T08:43:04.734Z,6.40
2018-03-08T08:44:05.208Z,6.40
2018-03-08T08:45:05.009Z,6.40
2018-03-08T08:46:04.648Z,6.40
2018-03-08T08:47:04.622Z,6.40
2018-03-08T08:48:04.562Z,6.50
2018-03-08T08:49:05.404Z,6.50
2018-03-08T08:50:04.751Z,6.50
2018-03-08T08:51:05.022Z,6.60
2018-03-08T08:52:05.023Z,6.60
2018-03-08T08:53:05.486Z,6.60
2018-03-08T08:54:05.435Z,6.60
2018-03-08T08:55:05.306Z,6.70
2018-03-08T08:56:05.022Z,6.70
2018-03-08T08:57:05.362Z,6.80
2018-03-08T08:58:04.974Z,6.80
2018-03-08T08:59:04.635Z,6.80
2018-03-08T09:00:04.796Z,6.80
2018-03-08T09:01:04.978Z,6.80
2018-03-08T09:02:04.692Z,6.80
2018-03-08T09:03:04.554Z,6.80
2018-03-08T09:04:04.525Z,6.80
2018-03-08T09:05:04.811Z,6.70
2018-03-08T09:06:04.786Z,6.70
2018-03-08T09:07:05.149Z,6.70
2018-03-08T09:08:05.254Z,6.60
2018-03-08T09:09:05.170Z,6.60
2018-03-08T09:10:05.040Z,6.60
2018-03-08T09:11:04.484Z,6.60
2018-03-08T09:12:04.838Z,6.60
2018-03-08T09:13:04.818Z,6.60
2018-03-08T09:14:04.554Z,6.60
2018-03-08T09:15:05.380Z,6.60
2018-03-08T09:16:06.435Z,6.70
2018-03-08T09:17:05.240Z,6.70
2018-03-08T09:18:05.121Z,6.70
2018-03-08T09:19:04.755Z,6.80
2018-03-08T09:20:05.380Z,6.80
2018-03-08T09:21:05.183Z,6.90
2018-03-08T09:22:05.184Z,6.90
2018-03-08T09:23:05.334Z,6.90
2018-03-08T09:24:04.823Z,7.00
2018-03-08T09:25:05.008Z,7.00
2018-03-08T09:26:05.214Z,7.00
2018-03-08T09:27:05.134Z,7.10
2018-03-08T09:28:04.729Z,7.10
2018-03-08T09:29:04.750Z,7.10
2018-03-08T09:30:04.712Z,7.10
2018-03-08T09:31:04.862Z,7.20
2018-03-08T09:32:04.492Z,7.20
2018-03-08T09:33:05.361Z,7.20
2018-03-08T09:34:04.624Z,7.20
2018-03-08T09:35:04.811Z,7.30
2018-03-08T09:36:04.614Z,7.30
2018-03-08T09:37:04.753Z,7.30
2018-03-08T09:38:04.610Z,7.40
2018-03-08T09:39:05.030Z,7.40
2018-03-08T09:40:05.036Z,7.40
2018-03-08T09:41:04.616Z,7.40
2018-03-08T09:42:04.666Z,7.40
2018-03-08T09:43:05.397Z,7.40
2018-03-08T09:44:05.023Z,7.50
2018-03-08T09:45:05.132Z,7.50
2018-03-08T09:46:05.295Z,7.50
2018-03-08T09:47:04.586Z,7.60
2018-03-08T09:48:04.743Z,7.60
2018-03-08T09:49:05.361Z,7.60
2018-03-08T09:50:04.909Z,7.60
2018-03-08T09:51:05.119Z,7.70
2018-03-08T09:52:05.030Z,7.70
2018-03-08T09:53:05.033Z,7.70
2018-03-08T09:54:05.275Z,7.80
2018-03-08T09:55:04.495Z,7.80
2018-03-08T09:56:04.815Z,7.80
2018-03-08T09:57:04.726Z,7.80
2018-03-08T09:58:04.456Z,7.90
2018-03-08T09:59:05.409Z,7.90
2018-03-08T10:00:04.621Z,7.90
2018-03-08T10:01:05.176Z,7.90
2018-03-08T10:02:05.273Z,8.00
2018-03-08T10:03:05.062Z,8.00
2018-03-08T10:04:05.222Z,8.00
2018-03-08T10:05:05.063Z,8.00
2018-03-08T10:06:05.307Z,8.10
2018-03-08T10:07:04.633Z,8.10
2018-03-08T10:08:04.810Z,8.10
2018-03-08T10:09:05.102Z,8.20
2018-03-08T10:10:04.915Z,8.20
2018-03-08T10:11:05.162Z,8.20
2018-03-08T10:12:05.020Z,8.20
2018-03-08T10:13:04.966Z,8.20
2018-03-08T10:14:04.588Z,8.20
2018-03-08T10:15:04.682Z,8.30
2018-03-08T10:16:04.763Z,8.30
2018-03-08T10:17:05.034Z,8.30
2018-03-08T10:18:05.222Z,8.30
2018-03-08T10:19:04.784Z,8.30
2018-03-08T10:20:04.653Z,8.30
2018-03-08T10:21:05.358Z,8.40
2018-03-08T10:22:05.415Z,8.40
2018-03-08T10:23:05.246Z,8.40
2018-03-08T10:24:05.240Z,8.40
2018-03-08T10:25:05.398Z,8.50
2018-03-08T10:26:05.310Z,8.50
2018-03-08T10:27:05.466Z,8.50
2018-03-08T10:28:05.323Z,8.50
2018-03-08T10:29:04.975Z,8.50
2018-03-08T10:30:05.389Z,8.50
2018-03-08T10:31:05.251Z,8.40
2018-03-08T10:32:04.496Z,8.40
2018-03-08T10:33:05.253Z,8.40
2018-03-08T10:34:05.048Z,8.40
2018-03-08T10:35:05.160Z,8.40
2018-03-08T10:36:04.763Z,8.30
2018-03-08T10:37:05.214Z,8.30
2018-03-08T10:38:04.795Z,8.30
2018-03-08T10:40:04.820Z,8.30
2018-03-08T10:41:04.859Z,8.30
2018-03-08T10:42:04.533Z,8.30
2018-03-08T10:43:05.319Z,8.40
2018-03-08T10:44:05.337Z,8.40
2018-03-08T10:45:05.473Z,8.40
2018-03-08T10:46:04.646Z,8.50
2018-03-08T10:47:04.731Z,8.50
2018-03-08T10:48:05.488Z,8.50
2018-03-08T10:49:05.162Z,8.60
2018-03-08T10:50:05.330Z,8.60
2018-03-08T10:51:05.457Z,8.60
2018-03-08T10:52:05.291Z,8.60
2018-03-08T10:53:05.445Z,8.60
2018-03-08T10:54:05.336Z,8.60
2018-03-08T10:55:05.215Z,8.50
2018-03-08T10:56:04.897Z,8.50
2018-03-08T10:57:04.978Z,8.50
2018-03-08T10:58:04.936Z,8.50
2018-03-08T10:59:05.236Z,8.40
2018-03-08T11:00:05.096Z,8.40
2018-03-08T11:01:04.850Z,8.40
2018-03-08T11:02:05.435Z,8.40
2018-03-08T11:03:04.614Z,8.30
2018-03-08T11:04:05.382Z,8.30
2018-03-08T11:05:05.441Z,8.30
2018-03-08T11:06:04.685Z,8.20
2018-03-08T11:07:04.835Z,8.20
2018-03-08T11:08:04.752Z,8.20
2018-03-08T11:09:04.705Z,8.20
2018-03-08T11:10:04.902Z,8.20
2018-03-08T11:11:04.582Z,8.20
2018-03-08T11:12:05.444Z,8.20
2018-03-08T11:13:04.819Z,8.30
2018-03-08T11:14:04.927Z,8.30
2018-03-08T11:15:04.521Z,8.30
2018-03-08T11:16:04.955Z,8.40
2018-03-08T11:17:04.682Z,8.40
2018-03-08T11:18:04.822Z,8.40
2018-03-08T11:19:04.982Z,8.40
2018-03-08T11:20:04.674Z,8.40
2018-03-08T11:21:04.984Z,8.40
2018-03-08T11:22:04.698Z,8.40
2018-03-08T11:23:04.994Z,8.30
2018-03-08T11:24:04.769Z,8.30
2018-03-08T11:25:04.574Z,8.30
2018-03-08T11:26:04.710Z,8.30
2018-03-08T11:27:04.484Z,8.30
2018-03-08T11:28:04.983Z,8.30
2018-03-08T11:29:04.771Z,8.30
2018-03-08T11:30:04.546Z,8.40
2018-03-08T11:31:05.073Z,8.40
2018-03-08T11:32:04.519Z,8.50
2018-03-08T11:33:05.381Z,8.50
2018-03-08T11:34:04.530Z,8.60
2018-03-08T11:35:04.713Z,8.60
2018-03-08T11:36:04.794Z,8.60
2018-03-08T11:37:04.540Z,8.50
2018-03-08T11:38:04.554Z,8.50
2018-03-08T11:39:05.284Z,8.50
2018-03-08T11:40:05.280Z,8.50
2018-03-08T11:41:04.433Z,8.50
2018-03-08T11:42:05.193Z,8.40
2018-03-08T11:43:05.069Z,8.50
2018-03-08T11:44:05.164Z,8.40
2018-03-08T11:45:05.182Z,8.40
2018-03-08T11:46:06.572Z,8.50
2018-03-08T11:47:04.902Z,8.50
2018-03-08T11:48:04.479Z,8.50
2018-03-08T11:49:05.462Z,8.50
2018-03-08T11:50:05.467Z,8.60
2018-03-08T11:51:05.185Z,8.60
2018-03-08T11:52:05.174Z,8.70
2018-03-08T11:53:05.340Z,8.70
2018-03-08T11:54:05.387Z,8.80
2018-03-08T11:55:05.210Z,8.90
2018-03-08T11:56:05.232Z,8.90
2018-03-08T11:57:05.407Z,9.00
2018-03-08T11:58:04.672Z,9.00
2018-03-08T11:59:05.264Z,9.10
2018-03-08T12:00:05.241Z,9.10
2018-03-08T12:01:04.839Z,9.10
2018-03-08T12:02:04.642Z,9.10
2018-03-08T12:03:05.387Z,9.10
2018-03-08T12:04:05.426Z,9.10
2018-03-08T12:05:05.067Z,9.10
2018-03-08T12:06:04.712Z,9.10
2018-03-08T12:07:05.388Z,9.10
2018-03-08T12:08:04.497Z,9.10
2018-03-08T12:09:05.421Z,9.10
2018-03-08T12:10:04.631Z,9.10
2018-03-08T12:11:04.856Z,9.10
2018-03-08T12:12:05.053Z,9.10
2018-03-08T12:13:04.788Z,9.10
2018-03-08T12:14:04.818Z,9.20
2018-03-08T12:15:04.967Z,9.20
2018-03-08T12:16:05.033Z,9.20
2018-03-08T12:17:04.954Z,9.20
2018-03-08T12:18:04.919Z,9.30
2018-03-08T12:19:04.741Z,9.30
2018-03-08T12:20:04.522Z,9.30
2018-03-08T12:21:05.088Z,9.30
2018-03-08T12:22:04.919Z,9.30
2018-03-08T12:23:04.570Z,9.30
2018-03-08T12:24:04.714Z,9.30
2018-03-08T12:25:04.608Z,9.30
2018-03-08T12:26:04.747Z,9.30
2018-03-08T12:27:04.946Z,9.30
2018-03-08T12:28:05.417Z,9.30
2018-03-08T12:29:05.482Z,9.20
2018-03-08T12:30:05.394Z,9.20
2018-03-08T12:31:05.131Z,9.10
2018-03-08T12:32:05.311Z,9.10
2018-03-08T12:33:05.188Z,9.00
2018-03-08T12:34:05.152Z,9.00
2018-03-08T12:35:04.793Z,9.00
2018-03-08T12:36:04.969Z,8.90
2018-03-08T12:37:05.653Z,8.90
2018-03-08T12:38:05.242Z,8.90
2018-03-08T12:39:04.991Z,8.90
2018-03-08T12:40:05.344Z,8.80
2018-03-08T12:41:05.091Z,8.80
2018-03-08T12:42:05.402Z,8.80
2018-03-08T12:43:04.574Z,8.70
2018-03-08T12:44:04.817Z,8.70
2018-03-08T12:45:04.845Z,8.70
2018-03-08T12:46:04.986Z,8.70
2018-03-08T12:47:05.318Z,8.60
2018-03-08T12:48:05.147Z,8.60
2018-03-08T12:49:05.253Z,8.60
2018-03-08T12:50:05.316Z,8.50
2018-03-08T12:51:05.292Z,8.50
2018-03-08T12:52:04.966Z,8.50
2018-03-08T12:53:05.372Z,8.40
2018-03-08T12:54:04.651Z,8.40
2018-03-08T12:55:04.755Z,8.40
2018-03-08T12:56:04.885Z,8.40
2018-03-08T12:57:04.897Z,8.40
2018-03-08T12:58:05.406Z,8.50
2018-03-08T12:59:05.038Z,8.50
2018-03-08T13:00:05.159Z,8.50
2018-03-08T13:01:04.918Z,8.50
2018-03-08T13:02:05.081Z,8.60
2018-03-08T13:03:05.231Z,8.60
2018-03-08T13:04:05.119Z,8.60
2018-03-08T13:05:04.518Z,8.60
2018-03-08T13:06:05.264Z,8.60
2018-03-08T13:07:05.077Z,8.60
2018-03-08T13:08:05.211Z,8.70
2018-03-08T13:09:05.135Z,8.70
2018-03-08T13:10:04.972Z,8.70
2018-03-08T13:11:04.802Z,8.60
2018-03-08T13:12:04.867Z,8.60
2018-03-08T13:13:04.568Z,8.60
2018-03-08T13:14:05.300Z,8.60
2018-03-08T13:15:04.864Z,8.60
2018-03-08T13:16:04.722Z,8.60
2018-03-08T13:17:05.495Z,8.50
2018-03-08T13:18:05.276Z,8.50
2018-03-08T13:19:05.094Z,8.50